createdAt,value
2023-02-23T00:02:09.339Z,2.91
2023-02-23T00:04:38.154Z,2.88
2023-02-23T00:07:08.345Z,2.85
2023-02-23T00:09:36.602Z,2.83
2023-02-23T00:12:08.748Z,2.79
2023-02-23T00:14:38.782Z,2.78
2023-02-23T00:17:14.313Z,2.76
2023-02-23T00:19:43.789Z,2.78
2023-02-23T00:22:13.790Z,2.77
2023-02-23T00:24:42.793Z,2.73
2023-02-23T00:27:17.602Z,2.68
2023-02-23T00:29:49.379Z,2.64
2023-02-23T00:32:19.988Z,2.64
2023-02-23T00:34:49.750Z,2.66
2023-02-23T00:37:19.974Z,2.63
2023-02-23T00:39:49.653Z,2.53
2023-02-23T00:42:17.747Z,2.54
2023-02-23T00:44:47.669Z,2.44
2023-02-23T00:47:15.754Z,2.44
2023-02-23T00:49:45.132Z,2.44
2023-02-23T00:52:14.888Z,2.41
2023-02-23T00:54:44.587Z,2.40
2023-02-23T00:57:12.715Z,2.32
2023-02-23T00:59:40.807Z,2.29
2023-02-23T01:02:09.097Z,2.26
2023-02-23T01:04:37.253Z,2.28
2023-02-23T01:07:06.603Z,2.27
2023-02-23T01:09:35.285Z,2.24
2023-02-23T01:12:08.151Z,2.28
2023-02-23T01:14:38.408Z,2.23
2023-02-23T01:17:07.593Z,2.22
2023-02-23T01:19:37.570Z,2.09
2023-02-23T01:22:05.918Z,2.15
2023-02-23T01:24:34.105Z,2.11
2023-02-23T01:27:07.065Z,2.07
2023-02-23T01:29:35.456Z,2.00
2023-02-23T01:32:05.058Z,2.02
2023-02-23T01:34:33.365Z,1.90
2023-02-23T01:37:01.468Z,1.95
2023-02-23T01:39:30.260Z,1.92
2023-02-23T01:41:58.596Z,1.95
2023-02-23T01:45:03.986Z,1.97
2023-02-23T01:47:35.225Z,1.86
2023-02-23T01:50:05.144Z,1.79
2023-02-23T01:52:34.056Z,1.84
2023-02-23T01:55:02.289Z,1.81
2023-02-23T01:57:30.424Z,1.77
2023-02-23T01:59:59.648Z,1.80
2023-02-23T02:02:33.963Z,1.73
2023-02-23T02:05:06.553Z,1.72
2023-02-23T02:07:36.342Z,1.68
2023-02-23T02:10:34.114Z,1.67
2023-02-23T02:13:06.018Z,1.71
2023-02-23T02:15:53.830Z,1.74
2023-02-23T02:18:38.263Z,1.70
2023-02-23T02:21:54.255Z,1.64
2023-02-23T02:24:54.030Z,1.59
2023-02-23T02:27:43.511Z,1.55
2023-02-23T02:30:34.479Z,1.44
2023-02-23T02:33:34.928Z,1.48
2023-02-23T02:36:23.948Z,1.50
2023-02-23T02:39:07.896Z,1.51
2023-02-23T02:41:51.300Z,1.49
2023-02-23T02:44:28.040Z,1.49
2023-02-23T02:47:01.918Z,1.43
2023-02-23T02:49:34.093Z,1.38
2023-02-23T02:52:08.191Z,1.38
2023-02-23T02:54:41.753Z,1.34
2023-02-23T02:57:12.392Z,1.37
2023-02-23T03:00:04.352Z,1.33
2023-02-23T03:02:52.674Z,1.30
2023-02-23T03:05:41.108Z,1.32
2023-02-23T03:08:35.076Z,1.32
2023-02-23T03:11:25.290Z,1.32
2023-02-23T03:14:24.712Z,1.26
2023-02-23T03:17:21.828Z,1.23
2023-02-23T03:20:15.925Z,1.20
2023-02-23T03:23:10.511Z,1.17
2023-02-23T03:26:07.862Z,1.17
2023-02-23T03:29:01.544Z,1.20
2023-02-23T03:31:55.926Z,1.23
2023-02-23T03:34:47.523Z,1.17
2023-02-23T03:37:38.014Z,1.09
2023-02-23T03:40:32.625Z,1.12
2023-02-23T03:43:24.611Z,1.12
2023-02-23T03:46:15.000Z,1.09
2023-02-23T03:49:04.670Z,1.10
2023-02-23T03:51:54.932Z,1.04
2023-02-23T03:54:46.771Z,1.02
2023-02-23T03:57:35.123Z,1.00
2023-02-23T04:00:23.932Z,0.98
2023-02-23T04:03:15.872Z,1.00
2023-02-23T04:06:03.807Z,0.94
2023-02-23T04:08:53.216Z,0.95
2023-02-23T04:11:46.190Z,0.97
2023-02-23T04:14:19.431Z,0.99
2023-02-23T04:16:48.085Z,0.97
2023-02-23T04:19:17.837Z,0.94
2023-02-23T04:21:45.929Z,0.93
2023-02-23T04:24:13.999Z,0.91
2023-02-23T04:26:42.468Z,0.90
2023-02-23T04:29:12.690Z,0.93
2023-02-23T04:31:41.802Z,0.94
2023-02-23T04:34:10.015Z,0.94
2023-02-23T04:36:39.598Z,0.90
2023-02-23T04:39:07.652Z,0.96
2023-02-23T04:41:35.815Z,0.96
2023-02-23T04:44:04.157Z,1.00
2023-02-23T04:46:32.425Z,0.98
2023-02-23T04:49:00.601Z,0.99
2023-02-23T04:51:32.337Z,1.02
2023-02-23T04:54:02.722Z,0.96
2023-02-23T04:56:31.121Z,0.94
2023-02-23T04:58:59.245Z,0.96
2023-02-23T05:01:28.811Z,0.97
2023-02-23T05:03:56.953Z,0.94
2023-02-23T05:06:24.985Z,0.92
2023-02-23T05:08:53.056Z,0.97
2023-02-23T05:11:22.961Z,0.97
2023-02-23T05:13:51.260Z,0.91
2023-02-23T05:16:19.359Z,0.93
2023-02-23T05:18:48.258Z,0.89
2023-02-23T05:21:16.836Z,0.87
2023-02-23T05:23:45.289Z,0.85
2023-02-23T05:26:14.714Z,0.79
2023-02-23T05:28:44.445Z,0.76
2023-02-23T05:31:13.296Z,0.74
2023-02-23T05:33:42.817Z,0.72
2023-02-23T05:36:12.195Z,0.71
2023-02-23T05:38:42.049Z,0.75
2023-02-23T05:41:12.713Z,0.70
2023-02-23T05:43:41.493Z,0.70
2023-02-23T05:46:12.969Z,0.69
2023-02-23T05:48:41.532Z,0.71
2023-02-23T05:51:11.952Z,0.69
2023-02-23T05:53:40.839Z,0.75
2023-02-23T05:56:14.580Z,0.76
2023-02-23T05:58:42.755Z,0.75
2023-02-23T06:01:12.529Z,0.75
2023-02-23T06:03:40.917Z,0.81
2023-02-23T06:06:09.287Z,0.80
2023-02-23T06:08:37.909Z,0.82
2023-02-23T06:11:06.461Z,0.84
2023-02-23T06:13:35.141Z,0.83
2023-02-23T06:16:03.989Z,0.92
2023-02-23T06:18:33.993Z,0.96
2023-02-23T06:21:04.019Z,1.04
2023-02-23T06:23:34.116Z,1.12
2023-02-23T06:26:02.330Z,1.19
2023-02-23T06:28:30.993Z,1.36
2023-02-23T06:30:59.207Z,1.46
2023-02-23T06:33:27.397Z,1.60
2023-02-23T06:35:57.540Z,1.86
2023-02-23T06:38:25.647Z,2.14
2023-02-23T06:40:53.708Z,2.35
2023-02-23T06:43:23.342Z,2.53
2023-02-23T06:45:51.974Z,2.62
2023-02-23T06:48:20.054Z,2.73
2023-02-23T06:50:48.125Z,2.88
2023-02-23T06:53:18.447Z,3.04
2023-02-23T06:55:46.562Z,3.02
2023-02-23T06:58:14.716Z,3.01
2023-02-23T07:00:43.779Z,3.12
2023-02-23T07:03:12.341Z,3.26
2023-02-23T07:05:41.074Z,3.36
2023-02-23T07:08:09.418Z,3.40
2023-02-23T07:10:38.900Z,3.53
2023-02-23T07:13:07.030Z,3.47
2023-02-23T07:15:36.572Z,3.59
2023-02-23T07:18:04.950Z,3.67
2023-02-23T07:20:34.110Z,3.74
2023-02-23T07:23:02.286Z,3.86
2023-02-23T07:25:31.224Z,3.92
2023-02-23T07:28:00.714Z,3.95
2023-02-23T07:30:28.923Z,4.12
2023-02-23T07:32:57.049Z,4.20
2023-02-23T07:35:25.192Z,4.33
2023-02-23T07:37:54.572Z,4.38
2023-02-23T07:40:22.738Z,4.57
2023-02-23T07:42:52.163Z,4.75
2023-02-23T07:45:25.022Z,4.83
2023-02-23T07:47:53.197Z,4.94
2023-02-23T07:50:21.444Z,5.13
2023-02-23T07:52:49.696Z,5.16
2023-02-23T07:55:17.840Z,5.33
2023-02-23T07:57:46.109Z,5.40
2023-02-23T08:00:15.269Z,5.50
2023-02-23T08:02:45.787Z,5.61
2023-02-23T08:05:14.087Z,5.69
2023-02-23T08:07:42.264Z,5.64
2023-02-23T08:10:11.762Z,5.73
2023-02-23T08:12:39.982Z,5.80
2023-02-23T08:15:09.074Z,6.01
2023-02-23T08:17:37.362Z,5.91
2023-02-23T08:20:11.264Z,6.27
2023-02-23T08:22:48.902Z,6.28
2023-02-23T08:25:18.241Z,6.39
2023-02-23T08:27:46.863Z,6.80
2023-02-23T08:30:16.835Z,7.04
2023-02-23T08:32:45.066Z,7.19
2023-02-23T08:35:15.127Z,7.43
2023-02-23T08:37:43.287Z,7.39
2023-02-23T08:40:15.509Z,7.33
2023-02-23T08:42:43.726Z,7.33
2023-02-23T08:45:13.481Z,7.68
2023-02-23T08:47:41.739Z,7.63
2023-02-23T08:50:11.990Z,7.75
2023-02-23T08:52:42.582Z,7.78
2023-02-23T08:55:14.137Z,7.97
2023-02-23T08:57:42.395Z,7.98
2023-02-23T09:00:16.788Z,8.19
2023-02-23T09:02:48.155Z,7.97
2023-02-23T09:05:17.257Z,8.10
2023-02-23T09:07:49.228Z,8.02
2023-02-23T09:10:24.918Z,8.04
2023-02-23T09:12:53.133Z,7.97
2023-02-23T09:15:21.524Z,8.15
2023-02-23T09:17:49.695Z,8.12
2023-02-23T09:20:18.764Z,8.18
2023-02-23T09:22:49.760Z,8.08
2023-02-23T09:25:19.233Z,8.09
2023-02-23T09:27:47.500Z,8.11
2023-02-23T09:30:17.869Z,8.16
2023-02-23T09:32:46.514Z,8.21
2023-02-23T09:35:18.028Z,8.29
2023-02-23T09:37:47.431Z,8.21
2023-02-23T09:40:18.946Z,8.24
2023-02-23T09:42:59.206Z,8.10
2023-02-23T09:45:34.661Z,8.07
2023-02-23T09:48:12.792Z,8.12
2023-02-23T09:50:46.237Z,8.08
2023-02-23T09:53:25.484Z,8.10
2023-02-23T09:55:57.572Z,8.12
2023-02-23T09:58:27.639Z,8.10
2023-02-23T10:01:24.008Z,8.14
2023-02-23T10:03:58.288Z,8.17
2023-02-23T10:06:27.437Z,8.21
2023-02-23T10:09:10.050Z,8.15
2023-02-23T10:11:46.818Z,8.34
2023-02-23T10:14:41.949Z,8.50
2023-02-23T10:17:22.329Z,8.46
2023-02-23T10:19:57.455Z,8.60
2023-02-23T10:22:27.018Z,8.63
2023-02-23T10:24:58.136Z,8.86
2023-02-23T10:27:33.794Z,9.02
2023-02-23T10:30:04.978Z,9.14
2023-02-23T10:32:41.651Z,9.18
2023-02-23T10:35:13.492Z,9.20
2023-02-23T10:37:41.696Z,9.39
2023-02-23T10:40:16.559Z,9.38
2023-02-23T10:42:46.164Z,9.51
2023-02-23T10:45:22.757Z,9.60
2023-02-23T10:47:58.858Z,9.75
2023-02-23T10:50:29.145Z,9.78
2023-02-23T10:53:01.495Z,9.87
2023-02-23T10:55:31.804Z,9.99
2023-02-23T10:58:10.859Z,10.02
2023-02-23T11:00:41.087Z,10.31
2023-02-23T11:03:20.413Z,10.52
2023-02-23T11:05:53.212Z,10.66
2023-02-23T11:08:29.236Z,10.75
2023-02-23T11:11:17.639Z,11.17
2023-02-23T11:13:48.740Z,11.36
2023-02-23T11:16:19.803Z,11.65
2023-02-23T11:18:55.444Z,11.71
2023-02-23T11:21:26.662Z,11.71
2023-02-23T11:23:57.410Z,11.64
2023-02-23T11:26:38.506Z,11.79
2023-02-23T11:29:17.675Z,12.05
2023-02-23T11:31:51.302Z,11.87
2023-02-23T11:34:29.488Z,11.81
2023-02-23T11:37:04.726Z,11.63
2023-02-23T11:39:32.885Z,11.76
2023-02-23T11:42:20.139Z,11.52
2023-02-23T11:45:03.294Z,11.43
2023-02-23T11:47:33.482Z,11.53
2023-02-23T11:50:02.448Z,11.49
2023-02-23T11:52:31.441Z,11.72
2023-02-23T11:55:01.733Z,11.55
2023-02-23T11:57:33.714Z,11.43
2023-02-23T12:00:13.094Z,11.50
2023-02-23T12:02:51.007Z,11.23
2023-02-23T12:05:23.403Z,11.21
2023-02-23T12:07:58.943Z,11.12
2023-02-23T12:10:32.148Z,11.18
2023-02-23T12:13:09.773Z,11.15
2023-02-23T12:15:48.024Z,11.19
2023-02-23T12:18:28.241Z,11.18
2023-02-23T12:21:02.749Z,11.08
2023-02-23T12:23:34.923Z,10.97
2023-02-23T12:26:07.968Z,10.91
2023-02-23T12:28:41.839Z,10.94
2023-02-23T12:31:24.661Z,10.83
2023-02-23T12:33:59.994Z,10.86
2023-02-23T12:36:38.571Z,10.87
2023-02-23T12:39:18.007Z,10.79
2023-02-23T12:41:52.588Z,10.81
2023-02-23T12:44:35.482Z,10.69
2023-02-23T12:47:10.343Z,10.73
2023-02-23T12:49:45.498Z,10.65
2023-02-23T12:52:20.207Z,10.84
2023-02-23T12:54:49.214Z,10.78
2023-02-23T12:57:28.481Z,10.87
2023-02-23T13:00:31.658Z,10.75
2023-02-23T13:03:23.981Z,10.94
2023-02-23T13:05:57.801Z,10.83
2023-02-23T13:08:35.781Z,10.85
2023-02-23T13:11:12.888Z,10.90
2023-02-23T13:13:47.943Z,11.05
2023-02-23T13:16:25.253Z,10.81
2023-02-23T13:19:12.073Z,10.82
2023-02-23T13:21:45.912Z,10.67
2023-02-23T13:24:19.115Z,10.60
2023-02-23T13:26:54.077Z,10.56
2023-02-23T13:29:31.859Z,10.52
2023-02-23T13:32:01.933Z,10.66
2023-02-23T13:34:35.782Z,10.61
2023-02-23T13:37:07.445Z,10.60
2023-02-23T13:40:00.748Z,10.71
2023-02-23T13:42:44.394Z,10.69
2023-02-23T13:45:33.355Z,10.74
2023-02-23T13:48:07.844Z,10.85
2023-02-23T13:50:46.642Z,10.74
2023-02-23T13:53:34.890Z,10.79
2023-02-23T13:56:08.444Z,10.74
2023-02-23T13:58:37.171Z,10.67
2023-02-23T14:01:10.173Z,10.68
2023-02-23T14:03:44.897Z,10.66
2023-02-23T14:06:19.065Z,10.61
2023-02-23T14:08:54.284Z,10.60
2023-02-23T14:11:42.519Z,10.47
2023-02-23T14:14:13.750Z,10.49
2023-02-23T14:16:42.110Z,10.59
2023-02-23T14:19:36.776Z,10.52
2023-02-23T14:22:11.122Z,10.49
2023-02-23T14:24:39.361Z,10.34
2023-02-23T14:27:41.095Z,10.33
2023-02-23T14:30:44.505Z,10.32
2023-02-23T14:33:38.164Z,10.28
2023-02-23T14:36:41.622Z,10.22
2023-02-23T14:39:19.453Z,10.18
2023-02-23T14:41:51.976Z,10.18
2023-02-23T14:44:29.688Z,10.18
2023-02-23T14:47:03.670Z,10.20
2023-02-23T14:49:36.939Z,10.16
2023-02-23T14:52:10.934Z,10.20
2023-02-23T14:54:41.849Z,10.31
2023-02-23T14:57:20.241Z,10.31
2023-02-23T14:59:59.445Z,10.32
2023-02-23T15:02:29.734Z,10.38
2023-02-23T15:04:58.464Z,10.39
2023-02-23T15:07:32.761Z,10.35
2023-02-23T15:10:04.887Z,10.41
2023-02-23T15:12:38.143Z,10.41
2023-02-23T15:15:15.463Z,10.33
2023-02-23T15:17:46.805Z,10.36
2023-02-23T15:20:18.767Z,10.36
2023-02-23T15:22:52.353Z,10.45
2023-02-23T15:25:27.480Z,10.45
2023-02-23T15:27:56.154Z,10.51
2023-02-23T15:30:27.822Z,10.47
2023-02-23T15:33:04.526Z,10.63
2023-02-23T15:35:38.383Z,10.68
2023-02-23T15:38:18.221Z,10.62
2023-02-23T15:40:59.369Z,10.52
2023-02-23T15:43:29.986Z,10.70
2023-02-23T15:46:04.365Z,10.58
2023-02-23T15:48:45.943Z,10.59
2023-02-23T15:51:25.546Z,10.63
2023-02-23T15:53:55.408Z,10.57
2023-02-23T15:56:28.122Z,10.49
2023-02-23T15:58:58.932Z,10.54
2023-02-23T16:01:30.581Z,10.58
2023-02-23T16:04:07.313Z,10.53
2023-02-23T16:06:38.530Z,10.43
2023-02-23T16:09:20.976Z,10.38
2023-02-23T16:11:53.813Z,10.33
2023-02-23T16:14:24.475Z,10.19
2023-02-23T16:17:10.483Z,10.05
2023-02-23T16:19:42.039Z,10.08
2023-02-23T16:22:22.442Z,10.02
2023-02-23T16:24:59.783Z,9.97
2023-02-23T16:27:31.395Z,9.89
2023-02-23T16:30:07.057Z,9.71
2023-02-23T16:32:38.851Z,9.68
2023-02-23T16:35:16.567Z,9.47
2023-02-23T16:37:57.156Z,9.32
2023-02-23T16:40:25.647Z,9.09
2023-02-23T16:42:59.839Z,8.97
2023-02-23T16:45:29.913Z,8.91
2023-02-23T16:48:02.721Z,8.80
2023-02-23T16:50:33.853Z,8.71
2023-02-23T16:53:04.299Z,8.66
2023-02-23T16:55:40.449Z,8.49
2023-02-23T16:58:17.330Z,8.34
2023-02-23T17:00:46.316Z,8.18
2023-02-23T17:03:20.451Z,8.08
2023-02-23T17:05:50.453Z,8.01
2023-02-23T17:08:19.318Z,7.88
2023-02-23T17:10:50.966Z,7.58
2023-02-23T17:13:22.777Z,7.34
2023-02-23T17:15:56.763Z,7.21
2023-02-23T17:18:27.417Z,7.05
2023-02-23T17:20:58.898Z,7.01
2023-02-23T17:23:38.632Z,6.82
2023-02-23T17:26:09.811Z,6.69
2023-02-23T17:28:43.039Z,6.54
2023-02-23T17:31:12.223Z,6.34
2023-02-23T17:33:41.527Z,6.18
2023-02-23T17:36:12.635Z,6.18
2023-02-23T17:38:44.504Z,5.98
2023-02-23T17:41:17.602Z,5.93
2023-02-23T17:43:48.490Z,5.89
2023-02-23T17:46:19.870Z,5.91
2023-02-23T17:48:49.213Z,5.79
2023-02-23T17:51:20.437Z,5.71
2023-02-23T17:53:50.744Z,5.61
2023-02-23T17:56:20.715Z,5.53
2023-02-23T17:58:52.039Z,5.49
2023-02-23T18:01:21.819Z,5.36
2023-02-23T18:03:51.641Z,5.33
2023-02-23T18:06:21.167Z,5.22
2023-02-23T18:08:52.276Z,5.13
2023-02-23T18:11:24.343Z,5.03
2023-02-23T18:13:55.460Z,4.99
2023-02-23T18:16:25.059Z,4.91
2023-02-23T18:18:58.460Z,4.85
2023-02-23T18:21:29.050Z,4.75
2023-02-23T18:23:58.797Z,4.63
2023-02-23T18:26:27.815Z,4.60
2023-02-23T18:28:58.847Z,4.61
2023-02-23T18:31:30.266Z,4.54
2023-02-23T18:34:02.031Z,4.48
2023-02-23T18:36:32.994Z,4.46
2023-02-23T18:39:02.875Z,4.38
2023-02-23T18:41:32.311Z,4.32
2023-02-23T18:44:05.186Z,4.27
2023-02-23T18:46:38.272Z,4.23
2023-02-23T18:49:08.002Z,4.21
2023-02-23T18:51:40.068Z,4.20
2023-02-23T18:54:21.559Z,4.16
2023-02-23T18:56:51.944Z,4.17
2023-02-23T18:59:26.459Z,4.18
2023-02-23T19:01:57.744Z,4.12
2023-02-23T19:04:27.584Z,4.12
2023-02-23T19:06:57.214Z,4.15
2023-02-23T19:09:27.163Z,4.14
2023-02-23T19:11:57.029Z,4.12
2023-02-23T19:14:47.774Z,4.08
2023-02-23T19:17:18.141Z,4.11
2023-02-23T19:19:50.957Z,4.11
2023-02-23T19:22:20.618Z,4.08
2023-02-23T19:24:52.589Z,4.13
2023-02-23T19:27:22.281Z,4.12
2023-02-23T19:29:55.428Z,4.13
2023-02-23T19:32:25.476Z,4.13
2023-02-23T19:34:55.024Z,4.18
2023-02-23T19:37:25.636Z,4.15
2023-02-23T19:39:56.147Z,4.18
2023-02-23T19:42:26.807Z,4.23
2023-02-23T19:44:59.546Z,4.20
2023-02-23T19:47:31.231Z,4.22
2023-02-23T19:50:02.151Z,4.23
2023-02-23T19:52:32.953Z,4.27
2023-02-23T19:55:03.637Z,4.34
2023-02-23T19:57:35.728Z,4.29
2023-02-23T20:00:12.665Z,4.33
2023-02-23T20:02:43.864Z,4.32
2023-02-23T20:05:15.870Z,4.36
2023-02-23T20:07:47.753Z,4.38
2023-02-23T20:10:26.204Z,4.41
2023-02-23T20:12:59.031Z,4.42
2023-02-23T20:15:30.506Z,4.38
2023-02-23T20:18:03.040Z,4.47
2023-02-23T20:20:35.303Z,4.50
2023-02-23T20:23:08.239Z,4.53
2023-02-23T20:25:45.687Z,4.55
2023-02-23T20:28:16.676Z,4.57
2023-02-23T20:30:51.133Z,4.65
2023-02-23T20:33:23.983Z,4.70
2023-02-23T20:35:55.047Z,4.79
2023-02-23T20:38:25.598Z,4.71
2023-02-23T20:40:55.548Z,4.73
2023-02-23T20:43:25.479Z,4.75
2023-02-23T20:46:00.976Z,4.76
2023-02-23T20:48:32.607Z,4.77
2023-02-23T20:51:04.923Z,4.79
2023-02-23T20:53:35.056Z,4.79
2023-02-23T20:56:07.452Z,4.78
2023-02-23T20:58:38.059Z,4.86
2023-02-23T21:01:15.475Z,4.91
2023-02-23T21:03:44.927Z,4.90
2023-02-23T21:06:16.605Z,4.89
2023-02-23T21:08:56.147Z,4.91
2023-02-23T21:11:27.287Z,4.91
2023-02-23T21:13:57.313Z,4.92
2023-02-23T21:16:32.807Z,4.91
2023-02-23T21:19:08.590Z,4.94
2023-02-23T21:21:41.302Z,4.95
2023-02-23T21:24:11.605Z,4.99
2023-02-23T21:26:40.709Z,4.99
2023-02-23T21:29:16.566Z,5.02
2023-02-23T21:31:49.334Z,5.04
2023-02-23T21:34:22.519Z,4.94
2023-02-23T21:36:54.685Z,5.05
2023-02-23T21:39:23.154Z,5.12
2023-02-23T21:41:52.214Z,5.15
2023-02-23T21:44:21.038Z,5.12
2023-02-23T21:46:51.812Z,5.04
2023-02-23T21:49:21.035Z,5.05
2023-02-23T21:51:49.919Z,5.15
2023-02-23T21:54:19.402Z,5.06
2023-02-23T21:56:48.053Z,5.04
2023-02-23T21:59:17.007Z,5.05
2023-02-23T22:01:47.492Z,5.05
2023-02-23T22:04:17.201Z,5.13
2023-02-23T22:06:48.228Z,5.11
2023-02-23T22:09:16.664Z,5.17
2023-02-23T22:11:46.790Z,5.19
2023-02-23T22:14:16.801Z,5.18
2023-02-23T22:16:45.366Z,5.25
2023-02-23T22:19:14.346Z,5.17
2023-02-23T22:21:45.568Z,5.18
2023-02-23T22:24:15.657Z,5.18
2023-02-23T22:26:50.462Z,5.17
2023-02-23T22:29:18.863Z,5.15
2023-02-23T22:31:47.280Z,5.18
2023-02-23T22:34:16.018Z,5.19
2023-02-23T22:36:46.617Z,5.25
2023-02-23T22:39:18.957Z,5.30
2023-02-23T22:41:48.381Z,5.27
2023-02-23T22:44:19.158Z,5.28
2023-02-23T22:46:49.645Z,5.25
2023-02-23T22:49:20.164Z,5.25
2023-02-23T22:51:50.572Z,5.28
2023-02-23T22:54:20.496Z,5.33
2023-02-23T22:56:49.051Z,5.36
2023-02-23T22:59:17.766Z,5.19
2023-02-23T23:01:47.530Z,5.18
2023-02-23T23:04:16.212Z,5.25
2023-02-23T23:06:44.940Z,5.21
2023-02-23T23:09:16.598Z,5.19
2023-02-23T23:11:44.984Z,5.19
2023-02-23T23:14:13.557Z,5.20
2023-02-23T23:16:48.160Z,5.25
2023-02-23T23:19:18.158Z,5.19
2023-02-23T23:21:46.564Z,5.18
2023-02-23T23:24:16.434Z,5.14
2023-02-23T23:26:45.331Z,5.13
2023-02-23T23:29:15.779Z,5.12
2023-02-23T23:31:46.571Z,5.05
2023-02-23T23:34:17.243Z,5.08
2023-02-23T23:36:49.156Z,5.12
2023-02-23T23:39:20.439Z,5.10
2023-02-23T23:41:49.425Z,5.14
2023-02-23T23:44:18.500Z,5.04
2023-02-23T23:46:47.453Z,5.03
2023-02-23T23:49:17.817Z,5.13
2023-02-23T23:51:50.064Z,5.07
2023-02-23T23:54:22.306Z,5.06
2023-02-23T23:56:51.375Z,5.05
2023-02-23T23:59:21.404Z,5.13
